Time,TemperatureF,DewpointF,PressureIn,WindDirection,WindDirectionDegrees,WindSpeedMPH,WindSpeedGustMPH,Humidity,HourlyPrecipIn,Conditions,Clouds,dailyrainin,SoftwareType,DateUTC
2013-05-08 00:04:00,40.1,22.5,29.05,SSW,211,0.0,0.0,49,0.00,,---,0.00,VWS V14.01,2013-05-08 06:04:00,
2013-05-08 00:10:00,39.9,22.3,29.02,SSW,211,0.0,0.0,49,0.00,,---,0.00,VWS V14.01,2013-05-08 06:10:00,
2013-05-08 00:16:00,39.7,21.7,29.02,South,182,0.0,0.0,48,0.00,,---,0.00,VWS V14.01,2013-05-08 06:16:00,
2013-05-08 00:21:00,39.4,21.3,29.02,South,182,0.0,3.1,48,0.00,,---,0.00,VWS V14.01,2013-05-08 06:21:00,
2013-05-08 00:27:00,39.4,21.3,29.02,South,182,0.0,0.0,48,0.00,,---,0.00,VWS V14.01,2013-05-08 06:27:00,
2013-05-08 00:32:00,39.2,21.7,29.02,South,182,0.0,0.0,49,0.00,,---,0.00,VWS V14.01,2013-05-08 06:32:00,
2013-05-08 00:38:00,39.2,21.7,28.99,SSW,205,0.0,0.0,49,0.00,,---,0.00,VWS V14.01,2013-05-08 06:38:00,
2013-05-08 00:43:00,39.0,21.5,28.99,SSW,205,0.0,0.0,49,0.00,,---,0.00,VWS V14.01,2013-05-08 06:43:00,
2013-05-08 00:48:00,39.0,22.0,28.99,SSW,205,0.0,0.0,50,0.00,,---,0.00,VWS V14.01,2013-05-08 06:48:00,
2013-05-08 00:54:00,38.8,21.8,29.02,SSW,205,0.0,0.0,50,0.00,,---,0.00,VWS V14.01,2013-05-08 06:54:00,
2013-05-08 00:59:00,38.8,21.8,29.02,SSW,205,0.0,0.0,50,0.00,,---,0.00,VWS V14.01,2013-05-08 06:59:00,
2013-05-08 01:04:00,38.7,21.2,29.02,SSW,205,0.0,0.0,49,0.00,,---,0.00,VWS V14.01,2013-05-08 07:04:00,
2013-05-08 01:10:00,38.7,21.2,29.02,SSW,205,0.0,0.0,49,0.00,,---,0.00,VWS V14.01,2013-05-08 07:10:00,
2013-05-08 01:15:00,38.7,21.2,29.02,SSW,199,0.0,0.0,49,0.00,,---,0.00,VWS V14.01,2013-05-08 07:15:00,
2013-05-08 01:21:00,38.7,21.2,28.99,SSW,199,0.0,0.0,49,0.00,,---,0.00,VWS V14.01,2013-05-08 07:21:00,
2013-05-08 01:26:00,38.5,20.5,28.99,SSW,199,0.0,0.0,48,0.00,,---,0.00,VWS V14.01,2013-05-08 07:26:00,
2013-05-08 01:32:00,38.3,20.4,28.99,SSW,199,0.0,0.0,48,0.00,,---,0.00,VWS V14.01,2013-05-08 07:32:00,
2013-05-08 01:37:00,38.1,19.7,29.02,SSW,199,0.0,0.0,47,0.00,,---,0.00,VWS V14.01,2013-05-08 07:37:00,
2013-05-08 01:43:00,37.9,19.5,29.02,SSW,196,0.0,0.0,47,0.00,,---,0.00,VWS V14.01,2013-05-08 07:43:00,
2013-05-08 01:48:00,37.4,20.0,29.02,SSE,164,0.0,0.0,49,0.00,,---,0.00,VWS V14.01,2013-05-08 07:48:00,
2013-05-08 01:54:00,37.2,19.8,28.99,South,190,6.7,6.7,49,0.00,,---,0.00,VWS V14.01,2013-05-08 07:54:00,
2013-05-08 01:59:00,36.9,19.5,28.99,South,184,4.9,5.8,49,0.00,,---,0.00,VWS V14.01,2013-05-08 07:59:00,
2013-05-08 02:05:00,36.9,19.5,28.99,SW,229,3.6,4.0,49,0.00,,---,0.00,VWS V14.01,2013-05-08 08:05:00,
2013-05-08 02:10:00,37.0,19.7,28.99,WSW,242,0.0,4.0,49,0.00,,---,0.00,VWS V14.01,2013-05-08 08:10:00,
2013-05-08 02:16:00,37.0,19.7,28.99,WSW,242,0.0,0.0,49,0.00,,---,0.00,VWS V14.01,2013-05-08 08:16:00,
2013-05-08 02:22:00,36.9,19.5,28.99,WSW,242,0.0,0.0,49,0.00,,---,0.00,VWS V14.01,2013-05-08 08:22:00,
2013-05-08 02:28:00,36.7,19.8,28.99,WSW,242,0.0,0.0,50,0.00,,---,0.00,VWS V14.01,2013-05-08 08:28:00,
2013-05-08 02:33:00,36.7,19.8,28.99,WSW,242,0.0,0.0,50,0.00,,---,0.00,VWS V14.01,2013-05-08 08:33:00,
2013-05-08 02:39:00,36.7,19.8,28.99,WSW,242,0.0,0.0,50,0.00,,---,0.00,VWS V14.01,2013-05-08 08:39:00,
2013-05-08 02:45:00,36.7,19.8,28.99,WSW,242,0.0,0.0,50,0.00,,---,0.00,VWS V14.01,2013-05-08 08:45:00,
2013-05-08 02:51:00,36.7,19.3,28.99,WSW,242,0.0,0.0,49,0.00,,---,0.00,VWS V14.01,2013-05-08 08:51:00,
2013-05-08 02:56:00,36.9,20.0,28.99,WSW,242,0.0,0.0,50,0.00,,---,0.00,VWS V14.01,2013-05-08 08:56:00,
2013-05-08 03:02:00,36.7,20.3,28.99,WSW,252,0.0,0.0,51,0.00,,---,0.00,VWS V14.01,2013-05-08 09:02:00,
2013-05-08 03:07:00,36.7,20.3,28.99,WSW,252,0.0,0.0,51,0.00,,---,0.00,VWS V14.01,2013-05-08 09:07:00,
2013-05-08 03:12:00,36.7,21.6,28.99,WSW,238,4.9,4.9,54,0.00,,---,0.00,VWS V14.01,2013-05-08 09:12:00,
2013-05-08 03:18:00,36.3,23.8,28.99,West,278,4.0,8.1,60,0.00,,---,0.00,VWS V14.01,2013-05-08 09:18:00,
2013-05-08 03:23:00,36.1,24.0,28.99,West,264,0.0,2.2,61,0.00,,---,0.00,VWS V14.01,2013-05-08 09:23:00,
2013-05-08 03:29:00,36.1,24.0,28.99,West,264,0.0,0.0,61,0.00,,---,0.00,VWS V14.01,2013-05-08 09:29:00,
2013-05-08 03:34:00,36.1,23.6,28.99,West,264,0.0,0.0,60,0.00,,---,0.00,VWS V14.01,2013-05-08 09:34:00,
2013-05-08 03:40:00,36.1,23.2,28.99,West,264,0.0,0.0,59,0.00,,---,0.00,VWS V14.01,2013-05-08 09:40:00,
2013-05-08 03:46:00,36.0,22.6,28.99,West,264,0.0,0.0,58,0.00,,---,0.00,VWS V14.01,2013-05-08 09:46:00,
2013-05-08 03:51:00,35.8,22.5,28.96,West,265,0.0,0.0,58,0.00,,---,0.00,VWS V14.01,2013-05-08 09:51:00,
2013-05-08 03:57:00,35.8,22.9,28.96,West,265,0.0,0.0,59,0.00,,---,0.00,VWS V14.01,2013-05-08 09:57:00,
2013-05-08 04:02:00,35.6,22.7,28.96,West,265,0.0,0.0,59,0.00,,---,0.00,VWS V14.01,2013-05-08 10:02:00,
2013-05-08 04:08:00,35.4,22.9,28.96,WSW,249,0.0,0.0,60,0.00,,---,0.00,VWS V14.01,2013-05-08 10:08:00,
2013-05-08 04:14:00,35.4,23.3,28.96,WSW,238,0.0,0.0,61,0.00,,---,0.00,VWS V14.01,2013-05-08 10:14:00,
2013-05-08 04:20:00,35.2,23.1,28.96,WSW,238,0.0,0.0,61,0.00,,---,0.00,VWS V14.01,2013-05-08 10:20:00,
2013-05-08 04:25:00,35.1,23.0,28.96,WSW,238,0.0,0.0,61,0.00,,---,0.00,VWS V14.01,2013-05-08 10:25:00,
2013-05-08 04:31:00,35.2,23.1,28.96,WSW,238,0.0,0.0,61,0.00,,---,0.00,VWS V14.01,2013-05-08 10:31:00,
2013-05-08 04:36:00,35.2,22.8,28.96,WSW,238,0.0,0.0,60,0.00,,---,0.00,VWS V14.01,2013-05-08 10:36:00,
2013-05-08 04:42:00,35.1,22.2,28.96,WSW,238,0.0,0.0,59,0.00,,---,0.00,VWS V14.01,2013-05-08 10:42:00,
2013-05-08 04:48:00,35.1,22.2,28.96,WSW,238,0.0,0.0,59,0.00,,---,0.00,VWS V14.01,2013-05-08 10:48:00,
2013-05-08 04:53:00,34.9,22.0,28.96,WSW,238,0.0,0.0,59,0.00,,---,0.00,VWS V14.01,2013-05-08 10:53:00,
2013-05-08 04:58:00,34.9,21.6,28.96,WSW,238,0.0,0.0,58,0.00,,---,0.00,VWS V14.01,2013-05-08 10:58:00,
2013-05-08 05:04:00,34.9,21.6,28.96,SW,227,0.0,0.0,58,0.00,,---,0.00,VWS V14.01,2013-05-08 11:04:00,
2013-05-08 05:10:00,34.7,21.5,28.96,SW,227,0.0,0.0,58,0.00,,---,0.00,VWS V14.01,2013-05-08 11:10:00,
2013-05-08 05:16:00,34.5,20.9,28.96,SW,227,0.0,0.0,57,0.00,,---,0.00,VWS V14.01,2013-05-08 11:16:00,
2013-05-08 05:22:00,34.3,20.7,28.96,SW,227,0.0,0.0,57,0.00,,---,0.00,VWS V14.01,2013-05-08 11:22:00,
2013-05-08 05:27:00,34.0,20.4,28.96,SSW,204,3.1,3.6,57,0.00,,---,0.00,VWS V14.01,2013-05-08 11:27:00,
2013-05-08 05:33:00,33.6,20.4,28.96,South,187,2.7,3.6,58,0.00,,---,0.00,VWS V14.01,2013-05-08 11:33:00,
2013-05-08 05:38:00,33.6,20.8,28.96,SSW,193,0.0,2.7,59,0.00,,---,0.00,VWS V14.01,2013-05-08 11:38:00,
2013-05-08 05:44:00,33.6,20.8,28.96,SSW,193,0.0,0.0,59,0.00,,---,0.00,VWS V14.01,2013-05-08 11:44:00,
2013-05-08 05:50:00,33.4,21.1,28.96,SW,218,0.0,0.0,60,0.00,,---,0.00,VWS V14.01,2013-05-08 11:50:00,
2013-05-08 05:56:00,33.4,21.1,28.96,South,190,0.0,0.0,60,0.00,,---,0.00,VWS V14.01,2013-05-08 11:56:00,
2013-05-08 06:01:00,33.4,21.5,28.96,East,86,0.0,0.0,61,0.00,,---,0.00,VWS V14.01,2013-05-08 12:01:00,
2013-05-08 06:07:00,33.4,21.1,28.96,East,86,0.0,0.0,60,0.00,,---,0.00,VWS V14.01,2013-05-08 12:07:00,
2013-05-08 06:13:00,33.4,21.1,28.96,East,86,0.0,0.0,60,0.00,,---,0.00,VWS V14.01,2013-05-08 12:13:00,
2013-05-08 06:19:00,33.3,20.5,28.96,East,86,0.0,0.0,59,0.00,,---,0.00,VWS V14.01,2013-05-08 12:19:00,
2013-05-08 06:24:00,33.3,20.5,28.96,East,86,0.0,0.0,59,0.00,,---,0.00,VWS V14.01,2013-05-08 12:24:00,
2013-05-08 06:29:00,33.1,19.9,28.96,East,86,0.0,0.0,58,0.00,,---,0.00,VWS V14.01,2013-05-08 12:29:00,
2013-05-08 06:35:00,33.1,20.3,28.96,East,86,0.0,0.0,59,0.00,,---,0.00,VWS V14.01,2013-05-08 12:35:00,
2013-05-08 06:41:00,32.9,19.8,28.96,East,86,0.0,0.0,58,0.00,,---,0.00,VWS V14.01,2013-05-08 12:41:00,
2013-05-08 06:46:00,32.9,19.8,28.96,East,86,0.0,0.0,58,0.00,,---,0.00,VWS V14.01,2013-05-08 12:46:00,
2013-05-08 06:52:00,32.7,19.6,28.96,SE,132,0.0,0.0,58,0.00,,---,0.00,VWS V14.01,2013-05-08 12:52:00,
2013-05-08 06:57:00,32.5,19.4,28.96,SSE,149,0.0,0.0,58,0.00,,---,0.00,VWS V14.01,2013-05-08 12:57:00,
2013-05-08 07:03:00,32.5,19.8,28.96,SSE,149,0.0,0.0,59,0.00,,---,0.00,VWS V14.01,2013-05-08 13:03:00,
2013-05-08 07:08:00,32.5,20.2,28.96,SE,128,0.0,0.0,60,0.00,,---,0.00,VWS V14.01,2013-05-08 13:08:00,
2013-05-08 07:14:00,32.5,20.6,28.96,ESE,120,0.0,0.0,61,0.00,,---,0.00,VWS V14.01,2013-05-08 13:14:00,
2013-05-08 07:19:00,32.7,20.8,28.96,SE,136,0.0,0.0,61,0.00,,---,0.00,VWS V14.01,2013-05-08 13:19:00,
2013-05-08 07:24:00,32.9,20.9,28.99,SSE,154,0.0,0.0,61,0.00,,---,0.00,VWS V14.01,2013-05-08 13:24:00,
2013-05-08 07:30:00,33.1,24.0,28.99,South,183,0.0,8.7,69,0.00,,---,0.00,VWS V14.01,2013-05-08 13:30:00,
2013-05-08 07:35:00,32.5,25.2,28.99,South,173,10.5,15.0,74,0.00,,---,0.00,VWS V14.01,2013-05-08 13:35:00,
2013-05-08 07:42:00,31.8,25.8,28.99,SE,140,3.6,10.5,78,0.00,,---,0.00,VWS V14.01,2013-05-08 13:42:00,
2013-05-08 07:47:00,31.5,25.7,28.99,SW,233,0.0,2.7,79,0.00,,---,0.00,VWS V14.01,2013-05-08 13:47:00,
2013-05-08 07:52:00,31.5,26.3,28.99,ENE,76,2.2,3.1,81,0.00,,---,0.00,VWS V14.01,2013-05-08 13:52:00,
2013-05-08 07:57:00,31.3,26.4,28.99,SSW,199,0.0,0.0,82,0.00,,---,0.00,VWS V14.01,2013-05-08 13:57:00,
2013-05-08 08:03:00,31.3,26.7,28.99,SSW,205,0.0,0.0,83,0.00,,---,0.00,VWS V14.01,2013-05-08 14:03:00,
2013-05-08 08:08:00,31.3,26.7,28.99,SSW,205,0.0,0.0,83,0.00,,---,0.00,VWS V14.01,2013-05-08 14:08:00,
2013-05-08 08:13:00,31.5,27.2,28.99,SSW,205,0.0,0.0,84,0.00,,---,0.00,VWS V14.01,2013-05-08 14:13:00,
2013-05-08 08:18:00,31.6,27.4,28.99,SSW,205,0.0,0.0,84,0.00,,---,0.00,VWS V14.01,2013-05-08 14:18:00,
2013-05-08 08:24:00,31.8,27.8,28.99,SW,220,0.0,0.0,85,0.00,,---,0.00,VWS V14.01,2013-05-08 14:24:00,
2013-05-08 08:29:00,32.2,28.2,28.99,SW,220,0.0,0.0,85,0.00,,---,0.00,VWS V14.01,2013-05-08 14:29:00,
2013-05-08 08:35:00,32.2,28.2,28.99,SW,218,0.0,0.0,85,0.00,,---,0.00,VWS V14.01,2013-05-08 14:35:00,
2013-05-08 08:40:00,32.4,28.4,28.99,WSW,253,0.0,0.0,85,0.00,,---,0.00,VWS V14.01,2013-05-08 14:40:00,
2013-05-08 08:46:00,32.5,28.8,28.99,WSW,253,0.0,0.0,86,0.00,,---,0.00,VWS V14.01,2013-05-08 14:46:00,
2013-05-08 08:51:00,32.7,29.0,28.99,WSW,253,0.0,0.0,86,0.00,,---,0.00,VWS V14.01,2013-05-08 14:51:00,
2013-05-08 08:57:00,32.7,29.0,28.99,West,266,0.0,0.0,86,0.00,,---,0.00,VWS V14.01,2013-05-08 14:57:00,
2013-05-08 09:02:00,32.7,29.0,28.99,West,266,0.0,0.0,86,0.00,,---,0.00,VWS V14.01,2013-05-08 15:02:00,
2013-05-08 09:08:00,32.7,28.7,28.96,West,266,0.0,0.0,85,0.00,,---,0.00,VWS V14.01,2013-05-08 15:08:00,
2013-05-08 09:14:00,32.9,28.9,28.96,WSW,241,0.0,0.0,85,0.00,,---,0.00,VWS V14.01,2013-05-08 15:14:00,
2013-05-08 09:19:00,33.1,29.1,28.96,WSW,241,0.0,0.0,85,0.00,,---,0.00,VWS V14.01,2013-05-08 15:19:00,
2013-05-08 09:24:00,33.1,29.1,28.99,SSW,209,3.1,4.0,85,0.00,,---,0.00,VWS V14.01,2013-05-08 15:24:00,
2013-05-08 09:29:00,33.3,29.2,28.99,SSW,210,0.0,3.6,85,0.00,,---,0.00,VWS V14.01,2013-05-08 15:29:00,
2013-05-08 09:35:00,33.3,29.0,28.96,SW,234,4.0,5.8,84,0.00,,---,0.00,VWS V14.01,2013-05-08 15:35:00,
2013-05-08 09:40:00,33.3,28.4,28.96,WSW,248,2.7,6.3,82,0.00,,---,0.00,VWS V14.01,2013-05-08 15:40:00,
2013-05-08 09:46:00,33.4,27.3,28.96,West,274,4.0,5.4,78,0.00,,---,0.00,VWS V14.01,2013-05-08 15:46:00,
2013-05-08 10:29:00,35.1,25.6,28.96,WSW,256,3.1,6.3,68,0.00,,---,0.00,VWS V14.01,2013-05-08 16:29:00,
2013-05-08 10:35:00,35.4,24.5,28.96,SW,236,6.3,7.2,64,0.00,,---,0.00,VWS V14.01,2013-05-08 16:35:00,
2013-05-08 10:40:00,36.0,25.4,28.96,WNW,287,4.9,5.4,65,0.00,,---,0.00,VWS V14.01,2013-05-08 16:40:00,
2013-05-08 10:46:00,36.3,26.1,28.96,West,276,5.8,7.6,66,0.00,,---,0.00,VWS V14.01,2013-05-08 16:46:00,
2013-05-08 10:51:00,37.0,26.4,28.96,WSW,253,4.0,9.2,65,0.00,,---,0.00,VWS V14.01,2013-05-08 16:51:00,
2013-05-08 10:57:00,37.6,23.7,28.96,West,275,8.3,9.6,57,0.00,,---,0.00,VWS V14.01,2013-05-08 16:57:00,
2013-05-08 11:02:00,37.9,23.2,28.96,SSW,206,5.4,12.8,55,0.00,,---,0.00,VWS V14.01,2013-05-08 17:02:00,
2013-05-08 11:08:00,38.1,23.0,28.96,West,279,4.0,8.3,54,0.00,,---,0.00,VWS V14.01,2013-05-08 17:08:00,
2013-05-08 11:14:00,38.7,22.6,28.96,West,266,4.0,10.1,52,0.00,,---,0.00,VWS V14.01,2013-05-08 17:14:00,
2013-05-08 11:21:00,39.0,22.0,28.96,West,262,10.1,12.8,50,0.00,,---,0.00,VWS V14.01,2013-05-08 17:21:00,